sensor_id;sensor_type;location;lat;lon;timestamp;temperature;humidity
16879;DHT22;8556;52.218;9.884;2023-04-03T00:00:21;0.20;99.90
16879;DHT22;8556;52.218;9.884;2023-04-03T00:02:48;0.20;99.90
16879;DHT22;8556;52.218;9.884;2023-04-03T00:05:16;0.20;99.90
16879;DHT22;8556;52.218;9.884;2023-04-03T00:07:43;0.10;99.90
16879;DHT22;8556;52.218;9.884;2023-04-03T00:10:11;-0.10;99.90
16879;DHT22;8556;52.218;9.884;2023-04-03T00:12:39;-0.20;99.90
16879;DHT22;8556;52.218;9.884;2023-04-03T00:15:07;-0.10;99.90
16879;DHT22;8556;52.218;9.884;2023-04-03T00:17:33;0.00;99.90
16879;DHT22;8556;52.218;9.884;2023-04-03T00:20:00;0.10;99.90
16879;DHT22;8556;52.218;9.884;2023-04-03T00:22:29;0.00;99.90
16879;DHT22;8556;52.218;9.884;2023-04-03T00:24:56;0.00;99.90
16879;DHT22;8556;52.218;9.884;2023-04-03T00:27:22;0.00;99.90
16879;DHT22;8556;52.218;9.884;2023-04-03T00:29:49;-0.10;99.90
16879;DHT22;8556;52.218;9.884;2023-04-03T00:32:16;-0.30;99.90
16879;DHT22;8556;52.218;9.884;2023-04-03T00:34:43;-0.50;99.90
16879;DHT22;8556;52.218;9.884;2023-04-03T00:37:10;-0.60;99.90
16879;DHT22;8556;52.218;9.884;2023-04-03T00:39:38;-0.60;99.90
16879;DHT22;8556;52.218;9.884;2023-04-03T00:42:06;-0.60;99.90
16879;DHT22;8556;52.218;9.884;2023-04-03T00:47:38;-0.70;99.90
16879;DHT22;8556;52.218;9.884;2023-04-03T00:50:07;-0.70;99.90
16879;DHT22;8556;52.218;9.884;2023-04-03T00:52:34;-0.60;99.90
16879;DHT22;8556;52.218;9.884;2023-04-03T00:55:05;-0.60;99.90
16879;DHT22;8556;52.218;9.884;2023-04-03T00:57:33;-0.70;99.90
16879;DHT22;8556;52.218;9.884;2023-04-03T01:00:04;-0.70;99.90
16879;DHT22;8556;52.218;9.884;2023-04-03T01:02:32;-0.70;99.90
16879;DHT22;8556;52.218;9.884;2023-04-03T01:04:59;-0.70;99.90
16879;DHT22;8556;52.218;9.884;2023-04-03T01:07:29;-0.70;99.90
16879;DHT22;8556;52.218;9.884;2023-04-03T01:09:58;-0.70;99.90
16879;DHT22;8556;52.218;9.884;2023-04-03T01:12:29;-0.80;99.90
16879;DHT22;8556;52.218;9.884;2023-04-03T01:14:57;-0.90;99.90
16879;DHT22;8556;52.218;9.884;2023-04-03T01:17:30;-1.00;99.90
16879;DHT22;8556;52.218;9.884;2023-04-03T01:20:11;-1.20;99.90
16879;DHT22;8556;52.218;9.884;2023-04-03T01:22:45;-1.20;99.90
16879;DHT22;8556;52.218;9.884;2023-04-03T01:25:16;-1.30;99.90
16879;DHT22;8556;52.218;9.884;2023-04-03T01:27:44;-1.40;99.90
16879;DHT22;8556;52.218;9.884;2023-04-03T01:30:13;-1.30;99.90
16879;DHT22;8556;52.218;9.884;2023-04-03T01:32:43;-1.20;99.90
16879;DHT22;8556;52.218;9.884;2023-04-03T01:35:10;-1.30;99.90
16879;DHT22;8556;52.218;9.884;2023-04-03T01:37:37;-1.20;99.90
16879;DHT22;8556;52.218;9.884;2023-04-03T01:40:06;-1.10;99.90
16879;DHT22;8556;52.218;9.884;2023-04-03T01:42:33;-1.20;99.90
16879;DHT22;8556;52.218;9.884;2023-04-03T01:45:00;-1.30;99.90
16879;DHT22;8556;52.218;9.884;2023-04-03T01:47:27;-1.40;99.90
16879;DHT22;8556;52.218;9.884;2023-04-03T01:49:55;-1.40;99.90
16879;DHT22;8556;52.218;9.884;2023-04-03T01:52:22;-1.40;99.90
16879;DHT22;8556;52.218;9.884;2023-04-03T01:54:49;-1.30;99.90
16879;DHT22;8556;52.218;9.884;2023-04-03T01:57:16;-1.30;99.90
16879;DHT22;8556;52.218;9.884;2023-04-03T01:59:42;-1.30;99.90
16879;DHT22;8556;52.218;9.884;2023-04-03T02:02:09;-1.40;99.90
16879;DHT22;8556;52.218;9.884;2023-04-03T02:04:37;-1.30;99.90
16879;DHT22;8556;52.218;9.884;2023-04-03T02:07:06;-1.30;99.90
16879;DHT22;8556;52.218;9.884;2023-04-03T02:09:33;-1.30;99.90
16879;DHT22;8556;52.218;9.884;2023-04-03T02:12:00;-1.30;99.90
16879;DHT22;8556;52.218;9.884;2023-04-03T02:14:27;-1.30;99.90
16879;DHT22;8556;52.218;9.884;2023-04-03T02:16:54;-1.30;99.90
16879;DHT22;8556;52.218;9.884;2023-04-03T02:19:21;-1.30;99.90
16879;DHT22;8556;52.218;9.884;2023-04-03T02:21:47;-1.30;99.90
16879;DHT22;8556;52.218;9.884;2023-04-03T02:24:16;-1.30;99.90
16879;DHT22;8556;52.218;9.884;2023-04-03T02:26:42;-1.30;99.90
16879;DHT22;8556;52.218;9.884;2023-04-03T02:29:09;-1.30;99.90
16879;DHT22;8556;52.218;9.884;2023-04-03T02:31:36;-1.30;99.90
16879;DHT22;8556;52.218;9.884;2023-04-03T02:34:03;-1.30;99.90
16879;DHT22;8556;52.218;9.884;2023-04-03T02:36:30;-1.30;99.90
16879;DHT22;8556;52.218;9.884;2023-04-03T02:38:56;-1.30;99.90
16879;DHT22;8556;52.218;9.884;2023-04-03T02:41:25;-1.30;99.90
16879;DHT22;8556;52.218;9.884;2023-04-03T02:43:59;-1.40;99.90
16879;DHT22;8556;52.218;9.884;2023-04-03T02:46:25;-1.50;99.90
16879;DHT22;8556;52.218;9.884;2023-04-03T02:48:52;-1.60;99.90
16879;DHT22;8556;52.218;9.884;2023-04-03T02:51:19;-1.60;99.90
16879;DHT22;8556;52.218;9.884;2023-04-03T02:53:46;-1.60;99.90
16879;DHT22;8556;52.218;9.884;2023-04-03T02:56:13;-1.60;99.90
16879;DHT22;8556;52.218;9.884;2023-04-03T02:58:41;-1.70;99.90
16879;DHT22;8556;52.218;9.884;2023-04-03T03:01:08;-1.70;99.90
16879;DHT22;8556;52.218;9.884;2023-04-03T03:03:34;-1.80;99.90
16879;DHT22;8556;52.218;9.884;2023-04-03T03:06:02;-1.80;99.90
16879;DHT22;8556;52.218;9.884;2023-04-03T03:08:29;-1.70;99.90
16879;DHT22;8556;52.218;9.884;2023-04-03T03:10:56;-1.80;99.90
16879;DHT22;8556;52.218;9.884;2023-04-03T03:13:24;-1.90;99.90
16879;DHT22;8556;52.218;9.884;2023-04-03T03:15:52;-2.00;99.90
16879;DHT22;8556;52.218;9.884;2023-04-03T03:18:19;-1.90;99.90
16879;DHT22;8556;52.218;9.884;2023-04-03T03:20:46;-1.90;99.90
16879;DHT22;8556;52.218;9.884;2023-04-03T03:23:13;-1.80;99.90
16879;DHT22;8556;52.218;9.884;2023-04-03T03:25:40;-1.80;99.90
16879;DHT22;8556;52.218;9.884;2023-04-03T03:28:07;-1.80;99.90
16879;DHT22;8556;52.218;9.884;2023-04-03T03:30:34;-1.70;99.90
16879;DHT22;8556;52.218;9.884;2023-04-03T03:33:03;-1.70;99.90
16879;DHT22;8556;52.218;9.884;2023-04-03T03:35:29;-1.70;99.90
16879;DHT22;8556;52.218;9.884;2023-04-03T03:37:56;-1.60;99.90
16879;DHT22;8556;52.218;9.884;2023-04-03T03:40:23;-1.70;99.90
16879;DHT22;8556;52.218;9.884;2023-04-03T03:42:50;-1.80;99.90
16879;DHT22;8556;52.218;9.884;2023-04-03T03:45:16;-1.80;99.90
16879;DHT22;8556;52.218;9.884;2023-04-03T03:47:43;-1.70;99.90
16879;DHT22;8556;52.218;9.884;2023-04-03T03:50:12;-1.80;99.90
16879;DHT22;8556;52.218;9.884;2023-04-03T03:52:39;-1.80;99.90
16879;DHT22;8556;52.218;9.884;2023-04-03T03:55:06;-1.70;99.90
16879;DHT22;8556;52.218;9.884;2023-04-03T03:57:33;-1.60;99.90
16879;DHT22;8556;52.218;9.884;2023-04-03T04:00:00;-1.70;99.90
16879;DHT22;8556;52.218;9.884;2023-04-03T04:02:27;-2.00;99.90
16879;DHT22;8556;52.218;9.884;2023-04-03T04:04:54;-2.30;99.90
16879;DHT22;8556;52.218;9.884;2023-04-03T04:07:22;-2.40;99.90
16879;DHT22;8556;52.218;9.884;2023-04-03T04:09:49;-2.40;99.90
16879;DHT22;8556;52.218;9.884;2023-04-03T04:12:16;-2.30;99.90
16879;DHT22;8556;52.218;9.884;2023-04-03T04:14:43;-2.30;99.90
16879;DHT22;8556;52.218;9.884;2023-04-03T04:17:12;-2.30;99.90
16879;DHT22;8556;52.218;9.884;2023-04-03T04:19:38;-2.30;99.90
16879;DHT22;8556;52.218;9.884;2023-04-03T04:22:05;-2.30;99.90
16879;DHT22;8556;52.218;9.884;2023-04-03T04:24:34;-2.40;99.90
16879;DHT22;8556;52.218;9.884;2023-04-03T04:27:00;-2.40;99.90
16879;DHT22;8556;52.218;9.884;2023-04-03T04:29:27;-2.40;99.90
16879;DHT22;8556;52.218;9.884;2023-04-03T04:31:54;-2.30;99.90
16879;DHT22;8556;52.218;9.884;2023-04-03T04:34:21;-2.20;99.90
16879;DHT22;8556;52.218;9.884;2023-04-03T04:36:48;-2.20;99.90
16879;DHT22;8556;52.218;9.884;2023-04-03T04:39:15;-2.20;99.90
16879;DHT22;8556;52.218;9.884;2023-04-03T04:41:43;-2.30;99.90
16879;DHT22;8556;52.218;9.884;2023-04-03T04:44:10;-2.30;99.90
16879;DHT22;8556;52.218;9.884;2023-04-03T04:46:36;-2.30;99.90
16879;DHT22;8556;52.218;9.884;2023-04-03T04:49:03;-2.40;99.90
16879;DHT22;8556;52.218;9.884;2023-04-03T04:51:31;-2.30;99.90
16879;DHT22;8556;52.218;9.884;2023-04-03T04:53:58;-2.40;99.90
16879;DHT22;8556;52.218;9.884;2023-04-03T04:56:25;-2.30;99.90
16879;DHT22;8556;52.218;9.884;2023-04-03T04:58:53;-2.20;99.90
16879;DHT22;8556;52.218;9.884;2023-04-03T05:01:20;-2.40;99.90
16879;DHT22;8556;52.218;9.884;2023-04-03T05:03:46;-2.30;99.90
16879;DHT22;8556;52.218;9.884;2023-04-03T05:06:14;-1.90;99.90
16879;DHT22;8556;52.218;9.884;2023-04-03T05:08:40;-1.50;99.90
16879;DHT22;8556;52.218;9.884;2023-04-03T05:11:07;-0.30;99.90
16879;DHT22;8556;52.218;9.884;2023-04-03T05:13:34;0.00;99.90
16879;DHT22;8556;52.218;9.884;2023-04-03T05:16:03;0.90;99.90
16879;DHT22;8556;52.218;9.884;2023-04-03T05:18:30;1.00;99.90
16879;DHT22;8556;52.218;9.884;2023-04-03T05:20:57;0.70;99.90
16879;DHT22;8556;52.218;9.884;2023-04-03T05:23:24;0.60;99.90
16879;DHT22;8556;52.218;9.884;2023-04-03T05:25:51;1.20;99.90
16879;DHT22;8556;52.218;9.884;2023-04-03T05:28:19;1.00;99.90
16879;DHT22;8556;52.218;9.884;2023-04-03T05:30:52;1.70;99.90
16879;DHT22;8556;52.218;9.884;2023-04-03T05:33:21;1.90;99.90
16879;DHT22;8556;52.218;9.884;2023-04-03T05:35:47;1.20;99.90
16879;DHT22;8556;52.218;9.884;2023-04-03T05:38:15;0.70;99.90
16879;DHT22;8556;52.218;9.884;2023-04-03T05:40:42;0.30;99.90
16879;DHT22;8556;52.218;9.884;2023-04-03T05:43:08;0.10;99.90
16879;DHT22;8556;52.218;9.884;2023-04-03T05:45:35;0.60;99.90
16879;DHT22;8556;52.218;9.884;2023-04-03T05:48:03;1.20;99.90
16879;DHT22;8556;52.218;9.884;2023-04-03T05:50:31;1.80;99.90
16879;DHT22;8556;52.218;9.884;2023-04-03T05:52:59;1.80;99.90
16879;DHT22;8556;52.218;9.884;2023-04-03T05:55:26;1.10;99.90
16879;DHT22;8556;52.218;9.884;2023-04-03T05:57:53;0.70;99.90
16879;DHT22;8556;52.218;9.884;2023-04-03T06:00:20;0.40;99.90
16879;DHT22;8556;52.218;9.884;2023-04-03T06:02:48;0.40;99.90
16879;DHT22;8556;52.218;9.884;2023-04-03T06:05:15;0.80;99.90
16879;DHT22;8556;52.218;9.884;2023-04-03T06:07:43;1.50;99.90
16879;DHT22;8556;52.218;9.884;2023-04-03T06:10:11;1.60;99.90
16879;DHT22;8556;52.218;9.884;2023-04-03T06:12:38;1.60;99.90
16879;DHT22;8556;52.218;9.884;2023-04-03T06:15:06;1.90;99.90
16879;DHT22;8556;52.218;9.884;2023-04-03T06:17:35;2.50;99.90
16879;DHT22;8556;52.218;9.884;2023-04-03T06:20:03;2.40;99.90
16879;DHT22;8556;52.218;9.884;2023-04-03T06:22:30;2.50;99.90
16879;DHT22;8556;52.218;9.884;2023-04-03T06:24:58;2.30;99.90
16879;DHT22;8556;52.218;9.884;2023-04-03T06:27:25;2.80;99.90
16879;DHT22;8556;52.218;9.884;2023-04-03T06:29:52;2.70;99.90
16879;DHT22;8556;52.218;9.884;2023-04-03T06:32:19;2.80;99.90
16879;DHT22;8556;52.218;9.884;2023-04-03T06:34:45;3.10;99.90
16879;DHT22;8556;52.218;9.884;2023-04-03T06:37:15;3.30;99.90
16879;DHT22;8556;52.218;9.884;2023-04-03T06:39:43;3.30;99.90
16879;DHT22;8556;52.218;9.884;2023-04-03T06:42:12;3.40;99.90
16879;DHT22;8556;52.218;9.884;2023-04-03T06:44:39;2.70;99.90
16879;DHT22;8556;52.218;9.884;2023-04-03T06:47:05;2.70;99.90
16879;DHT22;8556;52.218;9.884;2023-04-03T06:49:34;3.20;99.90
16879;DHT22;8556;52.218;9.884;2023-04-03T06:52:02;2.90;99.90
16879;DHT22;8556;52.218;9.884;2023-04-03T06:54:30;2.80;99.90
16879;DHT22;8556;52.218;9.884;2023-04-03T06:56:57;2.80;99.90
16879;DHT22;8556;52.218;9.884;2023-04-03T06:59:25;3.00;99.90
16879;DHT22;8556;52.218;9.884;2023-04-03T07:01:52;2.70;99.90
16879;DHT22;8556;52.218;9.884;2023-04-03T07:04:19;2.50;99.90
16879;DHT22;8556;52.218;9.884;2023-04-03T07:06:46;2.80;99.90
16879;DHT22;8556;52.218;9.884;2023-04-03T07:09:14;2.90;99.90
16879;DHT22;8556;52.218;9.884;2023-04-03T07:11:41;2.50;99.90
16879;DHT22;8556;52.218;9.884;2023-04-03T07:14:08;2.90;99.90
16879;DHT22;8556;52.218;9.884;2023-04-03T07:16:36;2.40;99.90
16879;DHT22;8556;52.218;9.884;2023-04-03T07:19:03;2.30;99.90
16879;DHT22;8556;52.218;9.884;2023-04-03T07:21:30;1.80;99.90
16879;DHT22;8556;52.218;9.884;2023-04-03T07:23:57;2.30;99.90
16879;DHT22;8556;52.218;9.884;2023-04-03T07:26:23;2.90;99.90
16879;DHT22;8556;52.218;9.884;2023-04-03T07:28:51;3.00;99.90
16879;DHT22;8556;52.218;9.884;2023-04-03T07:31:17;2.80;99.90
16879;DHT22;8556;52.218;9.884;2023-04-03T07:33:46;3.00;99.90
16879;DHT22;8556;52.218;9.884;2023-04-03T07:36:16;2.60;99.90
16879;DHT22;8556;52.218;9.884;2023-04-03T07:38:43;3.70;99.90
16879;DHT22;8556;52.218;9.884;2023-04-03T07:41:12;3.70;99.90
16879;DHT22;8556;52.218;9.884;2023-04-03T07:43:40;3.10;99.90
16879;DHT22;8556;52.218;9.884;2023-04-03T07:46:07;4.10;99.90
16879;DHT22;8556;52.218;9.884;2023-04-03T07:48:34;4.80;99.90
16879;DHT22;8556;52.218;9.884;2023-04-03T07:51:03;4.30;99.90
16879;DHT22;8556;52.218;9.884;2023-04-03T07:53:31;4.00;99.90
16879;DHT22;8556;52.218;9.884;2023-04-03T07:55:59;3.40;99.90
16879;DHT22;8556;52.218;9.884;2023-04-03T07:58:27;4.40;99.90
16879;DHT22;8556;52.218;9.884;2023-04-03T08:00:53;4.90;99.90
16879;DHT22;8556;52.218;9.884;2023-04-03T08:03:20;4.10;99.90
16879;DHT22;8556;52.218;9.884;2023-04-03T08:05:48;4.50;99.90
16879;DHT22;8556;52.218;9.884;2023-04-03T08:08:19;4.70;99.90
16879;DHT22;8556;52.218;9.884;2023-04-03T08:10:49;4.90;99.90
16879;DHT22;8556;52.218;9.884;2023-04-03T08:13:16;4.60;99.90
16879;DHT22;8556;52.218;9.884;2023-04-03T08:15:43;4.30;99.90
16879;DHT22;8556;52.218;9.884;2023-04-03T08:18:10;4.50;99.90
16879;DHT22;8556;52.218;9.884;2023-04-03T08:20:38;4.60;99.90
16879;DHT22;8556;52.218;9.884;2023-04-03T08:23:06;4.50;99.90
16879;DHT22;8556;52.218;9.884;2023-04-03T08:25:37;4.60;99.90
16879;DHT22;8556;52.218;9.884;2023-04-03T08:28:04;4.50;99.90
16879;DHT22;8556;52.218;9.884;2023-04-03T08:30:31;4.80;99.90
16879;DHT22;8556;52.218;9.884;2023-04-03T08:33:00;5.00;99.90
16879;DHT22;8556;52.218;9.884;2023-04-03T08:35:27;5.20;99.90
16879;DHT22;8556;52.218;9.884;2023-04-03T08:37:53;5.00;99.90
16879;DHT22;8556;52.218;9.884;2023-04-03T08:40:20;5.20;99.90
16879;DHT22;8556;52.218;9.884;2023-04-03T08:43:04;5.20;99.90
16879;DHT22;8556;52.218;9.884;2023-04-03T08:45:45;5.00;99.90
16879;DHT22;8556;52.218;9.884;2023-04-03T08:48:15;4.80;99.90
16879;DHT22;8556;52.218;9.884;2023-04-03T08:50:48;5.10;99.90
16879;DHT22;8556;52.218;9.884;2023-04-03T08:53:18;4.90;99.90
16879;DHT22;8556;52.218;9.884;2023-04-03T08:55:48;5.50;99.90
16879;DHT22;8556;52.218;9.884;2023-04-03T08:58:18;5.00;99.90
16879;DHT22;8556;52.218;9.884;2023-04-03T09:00:48;5.00;99.90
16879;DHT22;8556;52.218;9.884;2023-04-03T09:03:18;5.40;99.90
16879;DHT22;8556;52.218;9.884;2023-04-03T09:05:48;6.10;99.90
16879;DHT22;8556;52.218;9.884;2023-04-03T09:08:25;6.30;99.90
16879;DHT22;8556;52.218;9.884;2023-04-03T09:10:59;6.30;99.90
16879;DHT22;8556;52.218;9.884;2023-04-03T09:13:36;6.40;99.90
16879;DHT22;8556;52.218;9.884;2023-04-03T09:16:18;6.70;99.90
16879;DHT22;8556;52.218;9.884;2023-04-03T09:18:53;6.80;99.90
16879;DHT22;8556;52.218;9.884;2023-04-03T09:21:26;7.00;99.90
16879;DHT22;8556;52.218;9.884;2023-04-03T09:23:59;7.40;99.90
16879;DHT22;8556;52.218;9.884;2023-04-03T09:26:31;7.20;99.90
16879;DHT22;8556;52.218;9.884;2023-04-03T09:29:05;6.90;99.90
16879;DHT22;8556;52.218;9.884;2023-04-03T09:31:37;6.90;99.90
16879;DHT22;8556;52.218;9.884;2023-04-03T09:34:10;6.80;99.90
16879;DHT22;8556;52.218;9.884;2023-04-03T09:36:41;7.30;99.90
16879;DHT22;8556;52.218;9.884;2023-04-03T09:39:11;7.00;99.90
16879;DHT22;8556;52.218;9.884;2023-04-03T09:41:38;7.20;99.90
16879;DHT22;8556;52.218;9.884;2023-04-03T09:44:21;6.20;99.90
16879;DHT22;8556;52.218;9.884;2023-04-03T09:46:49;5.90;99.90
16879;DHT22;8556;52.218;9.884;2023-04-03T09:49:17;5.70;99.90
16879;DHT22;8556;52.218;9.884;2023-04-03T09:51:45;5.70;99.90
16879;DHT22;8556;52.218;9.884;2023-04-03T09:54:33;5.60;99.90
16879;DHT22;8556;52.218;9.884;2023-04-03T09:57:07;5.70;99.90
16879;DHT22;8556;52.218;9.884;2023-04-03T09:59:39;5.40;99.90
16879;DHT22;8556;52.218;9.884;2023-04-03T10:02:23;5.50;99.90
16879;DHT22;8556;52.218;9.884;2023-04-03T10:04:54;5.60;99.90
16879;DHT22;8556;52.218;9.884;2023-04-03T10:07:32;5.70;99.90
16879;DHT22;8556;52.218;9.884;2023-04-03T10:10:16;5.80;99.90
16879;DHT22;8556;52.218;9.884;2023-04-03T10:12:43;6.00;99.90
16879;DHT22;8556;52.218;9.884;2023-04-03T10:15:14;6.60;29.50
16879;DHT22;8556;52.218;9.884;2023-04-03T10:17:50;6.60;1.00
16879;DHT22;8556;52.218;9.884;2023-04-03T10:20:33;6.50;1.00
16879;DHT22;8556;52.218;9.884;2023-04-03T10:23:12;6.20;1.00
16879;DHT22;8556;52.218;9.884;2023-04-03T10:25:46;6.70;26.90
16879;DHT22;8556;52.218;9.884;2023-04-03T10:28:19;6.30;1.00
16879;DHT22;8556;52.218;9.884;2023-04-03T10:30:54;7.30;1.00
16879;DHT22;8556;52.218;9.884;2023-04-03T10:33:44;7.20;1.00
16879;DHT22;8556;52.218;9.884;2023-04-03T10:36:23;6.80;99.90
16879;DHT22;8556;52.218;9.884;2023-04-03T10:38:57;6.60;99.90
16879;DHT22;8556;52.218;9.884;2023-04-03T10:41:34;6.60;99.90
16879;DHT22;8556;52.218;9.884;2023-04-03T10:44:13;6.60;99.90
16879;DHT22;8556;52.218;9.884;2023-04-03T10:46:45;6.40;1.00
16879;DHT22;8556;52.218;9.884;2023-04-03T10:49:27;6.10;1.00
16879;DHT22;8556;52.218;9.884;2023-04-03T10:52:00;6.10;1.00
16879;DHT22;8556;52.218;9.884;2023-04-03T10:54:34;6.20;1.00
16879;DHT22;8556;52.218;9.884;2023-04-03T10:57:05;6.10;1.00
16879;DHT22;8556;52.218;9.884;2023-04-03T10:59:36;6.00;1.00
16879;DHT22;8556;52.218;9.884;2023-04-03T11:02:07;6.00;1.00
16879;DHT22;8556;52.218;9.884;2023-04-03T11:04:39;6.10;1.00
16879;DHT22;8556;52.218;9.884;2023-04-03T11:07:11;5.90;99.90
16879;DHT22;8556;52.218;9.884;2023-04-03T11:09:41;5.90;1.00
16879;DHT22;8556;52.218;9.884;2023-04-03T11:12:13;6.10;99.90
16879;DHT22;8556;52.218;9.884;2023-04-03T11:14:41;6.00;99.90
16879;DHT22;8556;52.218;9.884;2023-04-03T11:17:22;6.20;99.90
16879;DHT22;8556;52.218;9.884;2023-04-03T11:19:57;6.00;48.30
16879;DHT22;8556;52.218;9.884;2023-04-03T11:22:29;5.90;1.00
16879;DHT22;8556;52.218;9.884;2023-04-03T11:25:02;6.00;1.00
16879;DHT22;8556;52.218;9.884;2023-04-03T11:27:34;5.90;1.00
16879;DHT22;8556;52.218;9.884;2023-04-03T11:30:06;6.10;1.00
16879;DHT22;8556;52.218;9.884;2023-04-03T11:35:35;6.30;1.00
16879;DHT22;8556;52.218;9.884;2023-04-03T11:38:04;6.30;1.00
16879;DHT22;8556;52.218;9.884;2023-04-03T11:40:33;6.40;1.00
16879;DHT22;8556;52.218;9.884;2023-04-03T11:43:06;6.50;1.00
16879;DHT22;8556;52.218;9.884;2023-04-03T11:45:36;6.40;1.00
16879;DHT22;8556;52.218;9.884;2023-04-03T11:48:06;6.30;1.00
16879;DHT22;8556;52.218;9.884;2023-04-03T11:50:45;6.50;1.00
16879;DHT22;8556;52.218;9.884;2023-04-03T11:53:33;6.50;1.00
16879;DHT22;8556;52.218;9.884;2023-04-03T11:56:03;6.50;1.00
16879;DHT22;8556;52.218;9.884;2023-04-03T11:58:32;6.90;1.00
16879;DHT22;8556;52.218;9.884;2023-04-03T12:01:09;7.40;1.00
16879;DHT22;8556;52.218;9.884;2023-04-03T12:09:56;6.60;99.90
16879;DHT22;8556;52.218;9.884;2023-04-03T12:12:38;6.50;99.90
16879;DHT22;8556;52.218;9.884;2023-04-03T12:15:22;6.50;99.90
16879;DHT22;8556;52.218;9.884;2023-04-03T12:17:50;6.40;31.60
16879;DHT22;8556;52.218;9.884;2023-04-03T12:23:32;7.20;99.90
16879;DHT22;8556;52.218;9.884;2023-04-03T12:26:05;7.80;1.00
16879;DHT22;8556;52.218;9.884;2023-04-03T12:28:39;8.40;1.00
16879;DHT22;8556;52.218;9.884;2023-04-03T12:31:08;8.00;99.90
16879;DHT22;8556;52.218;9.884;2023-04-03T12:33:50;7.60;50.10
16879;DHT22;8556;52.218;9.884;2023-04-03T12:36:28;7.60;99.90
16879;DHT22;8556;52.218;9.884;2023-04-03T12:39:16;7.00;1.00
16879;DHT22;8556;52.218;9.884;2023-04-03T12:41:55;7.00;1.00
16879;DHT22;8556;52.218;9.884;2023-04-03T12:44:42;7.00;1.00
16879;DHT22;8556;52.218;9.884;2023-04-03T12:47:25;6.80;1.00
16879;DHT22;8556;52.218;9.884;2023-04-03T12:49:53;7.40;1.00
16879;DHT22;8556;52.218;9.884;2023-04-03T12:52:32;7.60;1.00
16879;DHT22;8556;52.218;9.884;2023-04-03T12:55:00;7.30;1.00
16879;DHT22;8556;52.218;9.884;2023-04-03T12:57:31;7.00;1.00
16879;DHT22;8556;52.218;9.884;2023-04-03T12:59:58;7.00;1.00
16879;DHT22;8556;52.218;9.884;2023-04-03T13:02:28;7.10;1.00
16879;DHT22;8556;52.218;9.884;2023-04-03T13:04:57;6.80;1.00
16879;DHT22;8556;52.218;9.884;2023-04-03T13:07:28;7.00;1.00
16879;DHT22;8556;52.218;9.884;2023-04-03T13:10:16;7.70;1.00
16879;DHT22;8556;52.218;9.884;2023-04-03T13:12:49;8.00;1.00
16879;DHT22;8556;52.218;9.884;2023-04-03T13:15:19;7.70;1.00
16879;DHT22;8556;52.218;9.884;2023-04-03T13:17:46;7.70;1.00
16879;DHT22;8556;52.218;9.884;2023-04-03T13:20:20;7.30;1.00
16879;DHT22;8556;52.218;9.884;2023-04-03T13:22:50;7.30;1.00
16879;DHT22;8556;52.218;9.884;2023-04-03T13:25:20;7.60;1.00
16879;DHT22;8556;52.218;9.884;2023-04-03T13:27:49;7.60;1.00
16879;DHT22;8556;52.218;9.884;2023-04-03T13:30:21;7.30;1.00
16879;DHT22;8556;52.218;9.884;2023-04-03T13:32:50;7.30;1.00
16879;DHT22;8556;52.218;9.884;2023-04-03T13:35:29;7.10;1.00
16879;DHT22;8556;52.218;9.884;2023-04-03T13:37:58;7.00;99.90
16879;DHT22;8556;52.218;9.884;2023-04-03T13:40:25;7.50;1.00
16879;DHT22;8556;52.218;9.884;2023-04-03T13:43:02;7.30;99.90
16879;DHT22;8556;52.218;9.884;2023-04-03T13:45:31;7.60;99.90
16879;DHT22;8556;52.218;9.884;2023-04-03T13:48:14;7.80;99.90
16879;DHT22;8556;52.218;9.884;2023-04-03T13:50:59;8.10;99.90
16879;DHT22;8556;52.218;9.884;2023-04-03T13:53:27;7.80;99.90
16879;DHT22;8556;52.218;9.884;2023-04-03T13:56:07;7.80;99.90
16879;DHT22;8556;52.218;9.884;2023-04-03T13:58:36;8.00;99.90
16879;DHT22;8556;52.218;9.884;2023-04-03T14:01:10;7.60;99.90
16879;DHT22;8556;52.218;9.884;2023-04-03T14:03:42;7.80;99.90
16879;DHT22;8556;52.218;9.884;2023-04-03T14:06:12;7.70;99.90
16879;DHT22;8556;52.218;9.884;2023-04-03T14:08:39;7.80;99.90
16879;DHT22;8556;52.218;9.884;2023-04-03T14:11:11;7.90;99.90
16879;DHT22;8556;52.218;9.884;2023-04-03T14:13:40;7.90;99.90
16879;DHT22;8556;52.218;9.884;2023-04-03T14:16:07;8.20;99.90
16879;DHT22;8556;52.218;9.884;2023-04-03T14:18:34;7.80;99.90
16879;DHT22;8556;52.218;9.884;2023-04-03T14:21:02;7.60;99.90
16879;DHT22;8556;52.218;9.884;2023-04-03T14:23:29;7.20;62.40
16879;DHT22;8556;52.218;9.884;2023-04-03T14:25:55;7.20;99.90
16879;DHT22;8556;52.218;9.884;2023-04-03T14:28:23;7.30;11.40
16879;DHT22;8556;52.218;9.884;2023-04-03T14:30:52;7.20;1.00
16879;DHT22;8556;52.218;9.884;2023-04-03T14:33:21;7.30;1.00
16879;DHT22;8556;52.218;9.884;2023-04-03T14:35:48;7.50;38.70
16879;DHT22;8556;52.218;9.884;2023-04-03T14:38:22;7.60;1.00
16879;DHT22;8556;52.218;9.884;2023-04-03T14:40:50;7.30;1.50
16879;DHT22;8556;52.218;9.884;2023-04-03T14:43:17;7.10;15.80
16879;DHT22;8556;52.218;9.884;2023-04-03T14:45:44;7.00;63.10
16879;DHT22;8556;52.218;9.884;2023-04-03T14:48:18;6.70;99.90
16879;DHT22;8556;52.218;9.884;2023-04-03T14:50:46;6.40;1.00
16879;DHT22;8556;52.218;9.884;2023-04-03T14:53:14;6.40;1.00
16879;DHT22;8556;52.218;9.884;2023-04-03T14:55:43;7.00;1.00
16879;DHT22;8556;52.218;9.884;2023-04-03T14:58:13;7.50;1.00
16879;DHT22;8556;52.218;9.884;2023-04-03T15:00:39;7.40;1.00
16879;DHT22;8556;52.218;9.884;2023-04-03T15:03:13;7.70;1.00
16879;DHT22;8556;52.218;9.884;2023-04-03T15:05:41;7.60;1.00
16879;DHT22;8556;52.218;9.884;2023-04-03T15:08:18;7.40;1.00
16879;DHT22;8556;52.218;9.884;2023-04-03T15:10:45;7.40;1.00
16879;DHT22;8556;52.218;9.884;2023-04-03T15:13:13;7.20;1.00
16879;DHT22;8556;52.218;9.884;2023-04-03T15:15:40;7.40;1.00
16879;DHT22;8556;52.218;9.884;2023-04-03T15:18:12;7.60;1.00
16879;DHT22;8556;52.218;9.884;2023-04-03T15:20:42;7.70;1.00
16879;DHT22;8556;52.218;9.884;2023-04-03T15:23:10;7.80;1.00
16879;DHT22;8556;52.218;9.884;2023-04-03T15:25:38;7.40;1.00
16879;DHT22;8556;52.218;9.884;2023-04-03T15:28:06;7.10;1.00
16879;DHT22;8556;52.218;9.884;2023-04-03T15:30:36;6.80;1.00
16879;DHT22;8556;52.218;9.884;2023-04-03T15:33:05;6.60;1.00
16879;DHT22;8556;52.218;9.884;2023-04-03T15:35:32;6.50;1.00
16879;DHT22;8556;52.218;9.884;2023-04-03T15:38:00;6.60;1.00
16879;DHT22;8556;52.218;9.884;2023-04-03T15:40:26;6.80;1.00
16879;DHT22;8556;52.218;9.884;2023-04-03T15:42:54;7.00;1.00
16879;DHT22;8556;52.218;9.884;2023-04-03T15:45:20;7.60;1.00
16879;DHT22;8556;52.218;9.884;2023-04-03T15:47:47;7.60;1.00
16879;DHT22;8556;52.218;9.884;2023-04-03T15:50:14;7.30;1.00
16879;DHT22;8556;52.218;9.884;2023-04-03T15:52:41;7.50;1.00
16879;DHT22;8556;52.218;9.884;2023-04-03T15:55:09;7.30;1.00
16879;DHT22;8556;52.218;9.884;2023-04-03T15:57:36;7.30;1.00
16879;DHT22;8556;52.218;9.884;2023-04-03T16:00:04;7.40;1.00
16879;DHT22;8556;52.218;9.884;2023-04-03T16:02:31;7.40;1.00
16879;DHT22;8556;52.218;9.884;2023-04-03T16:04:59;7.40;1.00
16879;DHT22;8556;52.218;9.884;2023-04-03T16:07:26;7.50;1.00
16879;DHT22;8556;52.218;9.884;2023-04-03T16:09:52;7.60;1.00
16879;DHT22;8556;52.218;9.884;2023-04-03T16:12:20;7.40;1.00
16879;DHT22;8556;52.218;9.884;2023-04-03T16:14:47;7.00;1.00
16879;DHT22;8556;52.218;9.884;2023-04-03T16:17:14;7.00;1.00
16879;DHT22;8556;52.218;9.884;2023-04-03T16:19:41;7.20;1.00
16879;DHT22;8556;52.218;9.884;2023-04-03T16:22:08;7.00;1.00
16879;DHT22;8556;52.218;9.884;2023-04-03T16:24:35;6.90;1.00
16879;DHT22;8556;52.218;9.884;2023-04-03T16:27:03;7.10;1.00
16879;DHT22;8556;52.218;9.884;2023-04-03T16:29:31;7.20;1.00
16879;DHT22;8556;52.218;9.884;2023-04-03T16:31:58;7.20;1.00